createdAt,value
2022-11-18T02:08:15.911Z,7.85
2022-11-18T02:10:43.310Z,8.60
2022-11-18T02:13:11.950Z,8.40
2022-11-18T02:15:55.725Z,9.30
2022-11-18T02:19:01.550Z,8.20
2022-11-18T02:21:41.814Z,8.93
2022-11-18T02:24:43.206Z,8.23
2022-11-18T02:31:31.184Z,7.38
2022-11-18T02:40:34.563Z,8.50
2022-11-18T02:43:10.434Z,8.05
2022-11-18T02:45:46.006Z,8.95
2022-11-18T02:48:16.781Z,7.97
2022-11-18T02:50:48.689Z,7.93
2022-11-18T02:53:21.017Z,7.50
2022-11-18T02:55:53.841Z,8.88
2022-11-18T02:58:31.027Z,8.43
2022-11-18T03:01:04.641Z,7.80
2022-11-18T03:03:35.875Z,8.07
2022-11-18T03:06:10.741Z,7.85
2022-11-18T03:08:59.135Z,8.45
2022-11-18T03:11:37.221Z,7.15
2022-11-18T03:14:30.661Z,7.97
2022-11-18T03:17:03.825Z,7.72
2022-11-18T03:19:55.892Z,7.18
2022-11-18T03:22:29.258Z,7.93
2022-11-18T03:25:12.785Z,7.30
2022-11-18T03:31:12.472Z,7.90
2022-11-18T03:33:46.864Z,7.93
2022-11-18T03:36:18.406Z,8.25
2022-11-18T03:38:58.061Z,9.48
2022-11-18T03:44:27.084Z,10.30
2022-11-18T03:47:02.674Z,10.30
2022-11-18T03:49:58.964Z,10.02
2022-11-18T03:52:34.162Z,11.43
2022-11-18T03:55:05.753Z,10.02
2022-11-18T03:57:55.996Z,10.25
2022-11-18T04:17:10.184Z,9.52
2022-11-18T04:20:00.344Z,11.13
2022-11-18T04:22:39.273Z,9.45
2022-11-18T04:28:46.182Z,8.80
2022-11-18T04:31:49.284Z,8.82
2022-11-18T04:37:20.266Z,9.73
2022-11-18T04:43:00.186Z,10.07
2022-11-18T04:50:53.630Z,9.30
2022-11-18T04:53:22.778Z,9.48
2022-11-18T04:55:55.186Z,10.15
2022-11-18T04:58:22.710Z,8.90
2022-11-18T05:00:51.907Z,9.55
2022-11-18T05:03:18.841Z,9.70
2022-11-18T05:06:09.277Z,9.90
2022-11-18T05:15:36.487Z,9.15
2022-11-18T05:28:18.428Z,9.63
2022-11-18T05:30:58.340Z,10.10
2022-11-18T05:34:03.765Z,11.63
2022-11-18T05:39:33.197Z,9.95
2022-11-18T05:59:36.491Z,9.40
2022-11-18T06:02:08.905Z,8.63
2022-11-18T06:04:44.351Z,9.68
2022-11-18T07:25:23.606Z,8.02
2022-11-18T10:09:54.306Z,10.93
2022-11-18T10:12:35.234Z,10.27
2022-11-18T10:23:03.354Z,8.43
2022-11-18T10:25:30.164Z,8.25
2022-11-18T10:28:14.201Z,8.25
2022-11-18T10:30:41.456Z,8.00
2022-11-18T10:33:28.976Z,7.97
2022-11-18T10:39:31.049Z,7.55
2022-11-18T10:42:40.134Z,7.80
2022-11-18T10:45:45.991Z,8.70
2022-11-18T10:48:16.850Z,7.53
2022-11-18T10:50:56.055Z,7.32
2022-11-18T11:05:51.226Z,8.50
2022-11-18T11:14:58.163Z,7.63
2022-11-18T11:18:37.501Z,8.85
2022-11-18T11:21:10.628Z,10.18
2022-11-18T11:29:27.359Z,10.85
2022-11-18T11:32:36.066Z,10.80
2022-11-18T11:35:23.360Z,10.95
2022-11-18T11:42:03.463Z,11.35
2022-11-18T11:45:15.813Z,11.77
2022-11-18T11:47:49.681Z,11.75
2022-11-18T11:57:19.299Z,12.43
2022-11-18T12:01:25.982Z,12.57
2022-11-18T12:04:19.199Z,13.13
2022-11-18T12:07:11.948Z,12.98
2022-11-18T12:13:23.102Z,10.18
2022-11-18T12:17:05.771Z,12.50
2022-11-18T12:22:21.094Z,10.85
2022-11-18T12:24:48.323Z,11.80
2022-11-18T12:28:06.011Z,12.80
2022-11-18T12:30:33.361Z,11.93
2022-11-18T12:33:01.244Z,12.52
2022-11-18T12:36:03.514Z,12.27
2022-11-18T12:38:32.809Z,13.40
2022-11-18T12:44:27.062Z,13.68
2022-11-18T12:47:52.400Z,14.90
2022-11-18T12:50:21.906Z,13.57
2022-11-18T12:52:50.406Z,14.63
2022-11-18T12:55:40.017Z,15.00
2022-11-18T13:04:28.154Z,13.50
2022-11-18T13:06:56.890Z,14.43
2022-11-18T13:09:25.288Z,14.38
2022-11-18T13:12:02.695Z,13.13
2022-11-18T13:14:52.117Z,14.18
2022-11-18T13:17:59.163Z,14.07
2022-11-18T13:21:25.177Z,13.60
2022-11-18T13:24:43.766Z,13.90
2022-11-18T13:27:22.818Z,13.15
2022-11-18T13:30:16.885Z,12.68
2022-11-18T13:33:22.161Z,13.43
2022-11-18T13:35:49.817Z,12.75
2022-11-18T13:42:06.206Z,13.95
2022-11-18T13:44:38.491Z,13.63
2022-11-18T13:47:35.069Z,13.23
2022-11-18T13:53:16.616Z,13.18
2022-11-18T13:56:23.242Z,13.60
2022-11-18T14:02:03.042Z,13.30
2022-11-18T14:04:32.066Z,14.02
2022-11-18T14:07:29.277Z,14.10
2022-11-18T14:10:04.510Z,14.98
2022-11-18T14:12:36.341Z,14.73
2022-11-18T14:15:36.879Z,15.30
2022-11-18T14:18:20.505Z,13.63
2022-11-18T14:20:52.633Z,13.25
2022-11-18T14:23:28.444Z,14.52
2022-11-18T14:25:56.783Z,16.05
2022-11-18T14:28:26.539Z,14.45
2022-11-18T14:31:32.989Z,15.00
2022-11-18T14:34:38.674Z,15.30
2022-11-18T14:37:16.110Z,13.50
2022-11-18T14:39:55.092Z,13.38
2022-11-18T14:42:21.902Z,14.10
2022-11-18T14:44:48.550Z,13.68
2022-11-18T14:47:26.433Z,14.23
2022-11-18T14:49:53.246Z,14.20
2022-11-18T14:52:20.073Z,14.82
2022-11-18T14:54:46.816Z,14.25
2022-11-18T14:57:17.600Z,13.13
2022-11-18T14:59:44.756Z,14.38
2022-11-18T15:02:17.106Z,14.27
2022-11-18T15:04:44.144Z,14.30
2022-11-18T15:07:23.971Z,14.93
2022-11-18T15:09:51.894Z,14.02
2022-11-18T15:12:18.701Z,13.98
2022-11-18T15:14:45.338Z,13.68
2022-11-18T15:17:13.657Z,14.07
2022-11-18T15:19:43.119Z,14.80
2022-11-18T15:22:10.058Z,15.35
2022-11-18T15:24:52.890Z,13.77
2022-11-18T15:27:22.529Z,15.02
2022-11-18T15:29:53.556Z,13.77
2022-11-18T15:35:12.925Z,13.90
2022-11-18T15:37:40.193Z,14.40
2022-11-18T17:23:03.168Z,8.52
2022-11-18T17:29:04.101Z,9.00
2022-11-18T17:31:31.497Z,8.48
2022-11-18T17:33:59.828Z,8.10
2022-11-18T17:52:53.890Z,6.00
2022-11-18T17:58:33.912Z,6.88
2022-11-18T18:01:15.209Z,6.80
2022-11-18T18:11:08.752Z,5.55
2022-11-18T18:13:56.520Z,5.55
2022-11-18T18:16:24.180Z,6.43
2022-11-18T18:18:51.236Z,5.10
2022-11-18T18:21:17.920Z,4.85
2022-11-18T18:23:44.759Z,4.55
2022-11-18T18:26:11.798Z,4.90
2022-11-18T18:28:38.564Z,4.63
2022-11-18T18:31:08.366Z,4.82
2022-11-18T18:33:36.725Z,4.70
2022-11-18T18:36:05.630Z,4.25
2022-11-18T18:38:33.713Z,4.30
2022-11-18T18:41:05.933Z,3.83
2022-11-18T18:43:32.830Z,4.50
2022-11-18T18:46:23.275Z,3.95
2022-11-18T18:48:50.018Z,4.07
2022-11-18T18:51:17.375Z,3.42
2022-11-18T18:53:44.335Z,3.95
2022-11-18T18:56:11.204Z,3.67
2022-11-18T18:58:37.986Z,3.55
2022-11-18T19:01:09.503Z,3.65
2022-11-18T19:03:38.446Z,4.03
2022-11-18T19:09:19.982Z,3.20
2022-11-18T19:12:06.659Z,4.30
2022-11-18T19:14:36.078Z,3.97
2022-11-18T19:17:10.035Z,3.58
2022-11-18T19:20:00.762Z,3.90
2022-11-18T19:22:33.782Z,3.97
2022-11-18T19:25:01.662Z,4.28
2022-11-18T19:27:29.445Z,3.53
2022-11-18T19:29:56.351Z,3.70
2022-11-18T19:32:23.529Z,4.03
2022-11-18T19:34:50.242Z,3.88
2022-11-18T19:37:17.001Z,4.85
2022-11-18T19:39:43.877Z,3.67
2022-11-18T19:42:11.053Z,4.65
2022-11-18T19:44:39.019Z,4.38
2022-11-18T19:47:05.852Z,4.55
2022-11-18T19:49:32.580Z,4.03
2022-11-18T19:51:59.302Z,3.85
2022-11-18T19:54:26.189Z,4.18
2022-11-18T19:56:53.005Z,4.15
2022-11-18T19:59:19.976Z,4.38
2022-11-18T20:01:47.144Z,4.20
2022-11-18T20:04:13.857Z,4.10
2022-11-18T20:06:40.908Z,3.85
2022-11-18T20:09:09.525Z,4.43
2022-11-18T20:11:36.513Z,3.88
2022-11-18T20:14:04.059Z,3.88
2022-11-18T20:16:31.708Z,4.75
2022-11-18T20:19:05.184Z,5.65
2022-11-18T20:21:36.456Z,4.60
2022-11-18T20:24:05.077Z,4.60
2022-11-18T20:26:35.168Z,4.88
2022-11-18T20:29:03.025Z,4.32
2022-11-18T20:31:30.715Z,4.45
2022-11-18T20:33:58.513Z,4.38
2022-11-18T20:36:27.945Z,4.80
2022-11-18T20:38:59.973Z,5.13
2022-11-18T20:41:29.536Z,5.65
2022-11-18T20:43:56.391Z,4.90
2022-11-18T20:46:23.315Z,4.95
2022-11-18T20:48:50.488Z,4.90
2022-11-18T20:51:23.576Z,4.35
2022-11-18T20:53:51.795Z,5.15
2022-11-18T20:56:21.663Z,4.13
2022-11-18T20:58:49.040Z,4.78
2022-11-18T21:01:21.907Z,5.28
2022-11-18T21:03:55.253Z,5.10
2022-11-18T21:06:24.241Z,5.38
2022-11-18T21:08:56.206Z,4.22
2022-11-18T21:11:23.116Z,5.10
2022-11-18T21:14:08.266Z,4.75
2022-11-18T21:16:34.948Z,4.85
2022-11-18T21:19:01.700Z,5.20
2022-11-18T21:21:48.925Z,4.82
2022-11-18T21:24:18.133Z,4.78
2022-11-18T21:26:47.218Z,4.85
2022-11-18T21:29:15.646Z,5.47
2022-11-18T21:31:43.754Z,5.35
2022-11-18T21:34:11.397Z,4.45
2022-11-18T21:36:44.365Z,4.95
2022-11-18T21:39:15.357Z,6.05
2022-11-18T21:41:42.467Z,4.90
2022-11-18T21:44:11.482Z,4.63
2022-11-18T21:46:40.334Z,4.75
2022-11-18T21:49:07.883Z,4.72
2022-11-18T21:51:35.326Z,5.00
2022-11-18T21:54:02.673Z,4.93
2022-11-18T21:56:31.421Z,4.90
2022-11-18T21:59:01.557Z,5.25
2022-11-18T22:01:31.349Z,4.85
2022-11-18T22:04:00.542Z,4.65
2022-11-18T22:06:33.468Z,4.97
2022-11-18T22:09:03.304Z,5.28
2022-11-18T22:11:30.201Z,5.13
2022-11-18T22:13:57.362Z,4.97
2022-11-18T22:16:25.637Z,5.05
2022-11-18T22:18:59.228Z,4.85
2022-11-18T22:21:30.490Z,5.30
2022-11-18T22:24:01.133Z,5.32
2022-11-18T22:26:28.838Z,5.32
2022-11-18T22:28:57.841Z,5.10
2022-11-18T22:31:27.007Z,5.18
2022-11-18T22:33:55.362Z,5.50
2022-11-18T22:36:24.139Z,6.00
2022-11-18T22:38:51.105Z,5.30
2022-11-18T22:41:38.931Z,5.60
2022-11-18T22:44:08.399Z,5.85
2022-11-18T22:46:36.105Z,4.47
2022-11-18T22:49:03.408Z,5.75
2022-11-18T22:51:30.208Z,5.82
2022-11-18T22:54:22.722Z,5.22
2022-11-18T22:56:43.606Z,4.85
2022-11-18T22:59:12.216Z,4.57
2022-11-18T23:01:39.513Z,5.05
2022-11-18T23:04:06.436Z,5.20
2022-11-18T23:06:33.479Z,4.93
2022-11-18T23:09:00.521Z,4.90
2022-11-18T23:11:45.483Z,4.78
2022-11-18T23:14:12.386Z,4.50
2022-11-18T23:16:41.594Z,4.95
2022-11-18T23:19:11.167Z,5.25
2022-11-18T23:21:38.040Z,4.03
2022-11-18T23:24:05.445Z,4.72
2022-11-18T23:26:32.863Z,4.88
2022-11-18T23:28:59.640Z,4.43
2022-11-18T23:31:27.783Z,5.10
2022-11-18T23:33:56.080Z,4.45
2022-11-18T23:36:23.868Z,4.70
2022-11-18T23:38:52.426Z,4.63
2022-11-18T23:41:20.150Z,4.40
2022-11-18T23:43:48.517Z,4.78
2022-11-18T23:46:16.928Z,4.30
2022-11-18T23:48:44.743Z,4.10
2022-11-18T23:51:17.480Z,4.60
2022-11-18T23:53:46.048Z,4.85
2022-11-18T23:56:18.266Z,4.68
2022-11-18T23:58:47.467Z,4.50
